sensor_id;sensor_type;location;lat;lon;timestamp;pressure;altitude;pressure_sealevel;temperature;humidity
4326;BME280;58429;49.826;10.880;2023-11-21T00:00:31;98023;;;8.28;85.98
4326;BME280;58429;49.826;10.880;2023-11-21T00:01:31;98022;;;8.29;86.01
4326;BME280;58429;49.826;10.880;2023-11-21T00:02:31;98029;;;8.28;86.01
4326;BME280;58429;49.826;10.880;2023-11-21T00:03:31;98020;;;8.29;86
4326;BME280;58429;49.826;10.880;2023-11-21T00:04:31;98019;;;8.29;85.97
4326;BME280;58429;49.826;10.880;2023-11-21T00:05:31;98020;;;8.26;85.99
4326;BME280;58429;49.826;10.880;2023-11-21T00:06:31;98021;;;8.24;86.03
4326;BME280;58429;49.826;10.880;2023-11-21T00:07:31;98019;;;8.24;86.09
4326;BME280;58429;49.826;10.880;2023-11-21T00:08:31;98026;;;8.24;86.05
4326;BME280;58429;49.826;10.880;2023-11-21T00:09:31;98024;;;8.23;86.11
4326;BME280;58429;49.826;10.880;2023-11-21T00:10:31;98027;;;8.2;86.11
4326;BME280;58429;49.826;10.880;2023-11-21T00:11:31;98030;;;8.22;86.14
4326;BME280;58429;49.826;10.880;2023-11-21T00:12:31;98024;;;8.24;86.16
4326;BME280;58429;49.826;10.880;2023-11-21T00:13:31;98024;;;8.22;86.17
4326;BME280;58429;49.826;10.880;2023-11-21T00:14:31;98022;;;8.23;86.25
4326;BME280;58429;49.826;10.880;2023-11-21T00:15:32;98030;;;8.19;86.24
4326;BME280;58429;49.826;10.880;2023-11-21T00:16:31;98022;;;8.22;86.29
4326;BME280;58429;49.826;10.880;2023-11-21T00:17:31;98026;;;8.14;86.26
4326;BME280;58429;49.826;10.880;2023-11-21T00:18:31;98022;;;8.17;86.27
4326;BME280;58429;49.826;10.880;2023-11-21T00:19:31;98030;;;8.16;86.3
4326;BME280;58429;49.826;10.880;2023-11-21T00:20:31;98027;;;8.2;86.36
4326;BME280;58429;49.826;10.880;2023-11-21T00:21:31;98025;;;8.17;86.36
4326;BME280;58429;49.826;10.880;2023-11-21T00:22:31;98019;;;8.14;86.36
4326;BME280;58429;49.826;10.880;2023-11-21T00:23:31;98018;;;8.16;86.38
4326;BME280;58429;49.826;10.880;2023-11-21T00:24:31;98021;;;8.17;86.42
4326;BME280;58429;49.826;10.880;2023-11-21T00:25:31;98024;;;8.18;86.43
4326;BME280;58429;49.826;10.880;2023-11-21T00:26:31;98028;;;8.14;86.46
4326;BME280;58429;49.826;10.880;2023-11-21T00:27:31;98026;;;8.11;86.51
4326;BME280;58429;49.826;10.880;2023-11-21T00:28:31;98026;;;8.14;86.54
4326;BME280;58429;49.826;10.880;2023-11-21T00:29:31;98026;;;8.11;86.55
4326;BME280;58429;49.826;10.880;2023-11-21T00:30:31;98022;;;8.1;86.59
4326;BME280;58429;49.826;10.880;2023-11-21T00:31:31;98028;;;8.09;86.64
4326;BME280;58429;49.826;10.880;2023-11-21T00:32:31;98028;;;8.08;86.65
4326;BME280;58429;49.826;10.880;2023-11-21T00:33:31;98027;;;8.09;86.61
4326;BME280;58429;49.826;10.880;2023-11-21T00:34:31;98026;;;8.1;86.67
4326;BME280;58429;49.826;10.880;2023-11-21T00:35:31;98023;;;8.1;86.69
4326;BME280;58429;49.826;10.880;2023-11-21T00:36:31;98026;;;8.1;86.73
4326;BME280;58429;49.826;10.880;2023-11-21T00:37:31;98035;;;8.09;86.78
4326;BME280;58429;49.826;10.880;2023-11-21T00:38:31;98029;;;8.09;86.76
4326;BME280;58429;49.826;10.880;2023-11-21T00:39:31;98034;;;8.08;86.8
4326;BME280;58429;49.826;10.880;2023-11-21T00:40:31;98028;;;8.09;86.84
4326;BME280;58429;49.826;10.880;2023-11-21T00:41:31;98029;;;8.09;86.86
4326;BME280;58429;49.826;10.880;2023-11-21T00:42:31;98029;;;8.06;86.87
4326;BME280;58429;49.826;10.880;2023-11-21T00:43:31;98023;;;8.1;86.94
4326;BME280;58429;49.826;10.880;2023-11-21T00:44:31;98022;;;8.05;86.96
4326;BME280;58429;49.826;10.880;2023-11-21T00:45:31;98025;;;8.04;86.99
4326;BME280;58429;49.826;10.880;2023-11-21T00:46:31;98023;;;8.05;87
4326;BME280;58429;49.826;10.880;2023-11-21T00:47:31;98026;;;8.02;87.01
4326;BME280;58429;49.826;10.880;2023-11-21T00:48:31;98027;;;8.06;87.03
4326;BME280;58429;49.826;10.880;2023-11-21T00:49:31;98023;;;8.03;87.09
4326;BME280;58429;49.826;10.880;2023-11-21T00:50:32;98029;;;8.06;87.2
4326;BME280;58429;49.826;10.880;2023-11-21T00:51:31;98026;;;8.03;87.19
4326;BME280;58429;49.826;10.880;2023-11-21T00:52:31;98031;;;8.03;87.16
4326;BME280;58429;49.826;10.880;2023-11-21T00:53:31;98028;;;8.04;87.28
4326;BME280;58429;49.826;10.880;2023-11-21T00:54:31;98027;;;8.03;87.27
4326;BME280;58429;49.826;10.880;2023-11-21T00:55:31;98034;;;8.06;87.23
4326;BME280;58429;49.826;10.880;2023-11-21T00:56:31;98027;;;8.04;87.25
4326;BME280;58429;49.826;10.880;2023-11-21T00:57:31;98033;;;8.07;87.25
4326;BME280;58429;49.826;10.880;2023-11-21T00:58:31;98033;;;8.06;87.31
4326;BME280;58429;49.826;10.880;2023-11-21T00:59:31;98028;;;8.03;87.28
4326;BME280;58429;49.826;10.880;2023-11-21T01:00:32;98031;;;8.04;87.39
4326;BME280;58429;49.826;10.880;2023-11-21T01:01:31;98036;;;8.04;87.37
4326;BME280;58429;49.826;10.880;2023-11-21T01:02:31;98037;;;8.02;87.39
4326;BME280;58429;49.826;10.880;2023-11-21T01:03:31;98035;;;8.03;87.44
4326;BME280;58429;49.826;10.880;2023-11-21T01:04:32;98033;;;8.02;87.52
4326;BME280;58429;49.826;10.880;2023-11-21T01:05:31;98033;;;8.03;87.51
4326;BME280;58429;49.826;10.880;2023-11-21T01:06:31;98037;;;8.01;87.55
4326;BME280;58429;49.826;10.880;2023-11-21T01:07:31;98036;;;8.02;87.61
4326;BME280;58429;49.826;10.880;2023-11-21T01:08:31;98037;;;8.03;87.67
4326;BME280;58429;49.826;10.880;2023-11-21T01:09:31;98040;;;8.01;87.65
4326;BME280;58429;49.826;10.880;2023-11-21T01:10:31;98035;;;8.02;87.69
4326;BME280;58429;49.826;10.880;2023-11-21T01:11:31;98036;;;8.03;87.69
4326;BME280;58429;49.826;10.880;2023-11-21T01:12:31;98037;;;8.03;87.73
4326;BME280;58429;49.826;10.880;2023-11-21T01:13:31;98038;;;8.02;87.75
4326;BME280;58429;49.826;10.880;2023-11-21T01:14:31;98037;;;8.04;87.75
4326;BME280;58429;49.826;10.880;2023-11-21T01:15:31;98040;;;7.99;87.76
4326;BME280;58429;49.826;10.880;2023-11-21T01:16:31;98044;;;8.03;87.77
4326;BME280;58429;49.826;10.880;2023-11-21T01:17:31;98035;;;8.02;87.77
4326;BME280;58429;49.826;10.880;2023-11-21T01:18:31;98038;;;8.03;87.81
4326;BME280;58429;49.826;10.880;2023-11-21T01:19:31;98034;;;8.02;87.78
4326;BME280;58429;49.826;10.880;2023-11-21T01:20:32;98039;;;8.02;87.75
4326;BME280;58429;49.826;10.880;2023-11-21T01:21:31;98035;;;8.05;87.74
4326;BME280;58429;49.826;10.880;2023-11-21T01:22:31;98042;;;8.04;87.72
4326;BME280;58429;49.826;10.880;2023-11-21T01:23:31;98035;;;8.05;87.74
4326;BME280;58429;49.826;10.880;2023-11-21T01:24:31;98031;;;8.02;87.71
4326;BME280;58429;49.826;10.880;2023-11-21T01:25:31;98031;;;8.06;87.75
4326;BME280;58429;49.826;10.880;2023-11-21T01:26:31;98029;;;8.06;87.79
4326;BME280;58429;49.826;10.880;2023-11-21T01:27:31;98028;;;8.05;87.74
4326;BME280;58429;49.826;10.880;2023-11-21T01:28:31;98026;;;8.01;87.8
4326;BME280;58429;49.826;10.880;2023-11-21T01:29:31;98030;;;8.05;87.8
4326;BME280;58429;49.826;10.880;2023-11-21T01:30:31;98029;;;8.04;87.78
4326;BME280;58429;49.826;10.880;2023-11-21T01:31:31;98029;;;7.99;87.78
4326;BME280;58429;49.826;10.880;2023-11-21T01:32:31;98031;;;8.05;87.77
4326;BME280;58429;49.826;10.880;2023-11-21T01:33:31;98032;;;8.03;87.78
4326;BME280;58429;49.826;10.880;2023-11-21T01:34:31;98029;;;8.05;87.78
4326;BME280;58429;49.826;10.880;2023-11-21T01:35:31;98033;;;8.05;87.8
4326;BME280;58429;49.826;10.880;2023-11-21T01:36:32;98030;;;8.03;87.76
4326;BME280;58429;49.826;10.880;2023-11-21T01:37:32;98030;;;8.06;87.75
4326;BME280;58429;49.826;10.880;2023-11-21T01:38:31;98036;;;8.07;87.75
4326;BME280;58429;49.826;10.880;2023-11-21T01:39:31;98036;;;8.08;87.76
4326;BME280;58429;49.826;10.880;2023-11-21T01:40:31;98028;;;8.07;87.77
4326;BME280;58429;49.826;10.880;2023-11-21T01:41:31;98036;;;8.09;87.75
4326;BME280;58429;49.826;10.880;2023-11-21T01:42:31;98035;;;8.08;87.71
4326;BME280;58429;49.826;10.880;2023-11-21T01:43:31;98029;;;8.09;87.7
4326;BME280;58429;49.826;10.880;2023-11-21T01:44:31;98031;;;8.07;87.69
4326;BME280;58429;49.826;10.880;2023-11-21T01:45:31;98030;;;8.08;87.66
4326;BME280;58429;49.826;10.880;2023-11-21T01:46:31;98027;;;8.07;87.66
4326;BME280;58429;49.826;10.880;2023-11-21T01:47:31;98033;;;8.11;87.65
4326;BME280;58429;49.826;10.880;2023-11-21T01:48:31;98035;;;8.07;87.68
4326;BME280;58429;49.826;10.880;2023-11-21T01:49:31;98035;;;8.1;87.71
4326;BME280;58429;49.826;10.880;2023-11-21T01:50:32;98031;;;8.12;87.71
4326;BME280;58429;49.826;10.880;2023-11-21T01:51:31;98037;;;8.13;87.69
4326;BME280;58429;49.826;10.880;2023-11-21T01:52:32;98035;;;8.1;87.72
4326;BME280;58429;49.826;10.880;2023-11-21T01:53:31;98037;;;8.1;87.75
4326;BME280;58429;49.826;10.880;2023-11-21T01:54:31;98034;;;8.13;87.72
4326;BME280;58429;49.826;10.880;2023-11-21T01:55:31;98037;;;8.13;87.71
4326;BME280;58429;49.826;10.880;2023-11-21T01:56:31;98034;;;8.11;87.7
4326;BME280;58429;49.826;10.880;2023-11-21T01:57:32;98031;;;8.14;87.75
4326;BME280;58429;49.826;10.880;2023-11-21T01:58:31;98032;;;8.11;87.79
4326;BME280;58429;49.826;10.880;2023-11-21T01:59:33;98040;;;8.1;87.9
4326;BME280;58429;49.826;10.880;2023-11-21T02:00:31;98037;;;8.03;87.9
4326;BME280;58429;49.826;10.880;2023-11-21T02:01:31;98029;;;8.08;87.94
4326;BME280;58429;49.826;10.880;2023-11-21T02:02:31;98038;;;8.07;88.07
4326;BME280;58429;49.826;10.880;2023-11-21T02:03:31;98034;;;8;88.04
4326;BME280;58429;49.826;10.880;2023-11-21T02:04:32;98034;;;8.04;88.1
4326;BME280;58429;49.826;10.880;2023-11-21T02:05:31;98031;;;8.02;88.1
4326;BME280;58429;49.826;10.880;2023-11-21T02:06:31;98036;;;8.05;88.16
4326;BME280;58429;49.826;10.880;2023-11-21T02:07:32;98030;;;8.03;88.15
4326;BME280;58429;49.826;10.880;2023-11-21T02:08:31;98033;;;8.02;88.11
4326;BME280;58429;49.826;10.880;2023-11-21T02:09:31;98030;;;8.05;88.11
4326;BME280;58429;49.826;10.880;2023-11-21T02:10:32;98037;;;8.07;88.11
4326;BME280;58429;49.826;10.880;2023-11-21T02:11:31;98032;;;8.08;88.16
4326;BME280;58429;49.826;10.880;2023-11-21T02:12:31;98034;;;8.08;88.22
4326;BME280;58429;49.826;10.880;2023-11-21T02:13:31;98031;;;8.05;88.21
4326;BME280;58429;49.826;10.880;2023-11-21T02:14:31;98034;;;8.04;88.22
4326;BME280;58429;49.826;10.880;2023-11-21T02:15:31;98037;;;8.07;88.27
4326;BME280;58429;49.826;10.880;2023-11-21T02:16:32;98034;;;8.05;88.25
4326;BME280;58429;49.826;10.880;2023-11-21T02:17:31;98032;;;8.02;88.45
4326;BME280;58429;49.826;10.880;2023-11-21T02:18:31;98035;;;7.99;88.67
4326;BME280;58429;49.826;10.880;2023-11-21T02:19:32;98034;;;7.94;88.68
4326;BME280;58429;49.826;10.880;2023-11-21T02:20:32;98037;;;7.93;88.73
4326;BME280;58429;49.826;10.880;2023-11-21T02:21:32;98033;;;7.97;88.81
4326;BME280;58429;49.826;10.880;2023-11-21T02:22:32;98034;;;7.87;89.2
4326;BME280;58429;49.826;10.880;2023-11-21T02:23:32;98033;;;7.89;89.23
4326;BME280;58429;49.826;10.880;2023-11-21T02:24:32;98036;;;7.86;89.44
4326;BME280;58429;49.826;10.880;2023-11-21T02:25:32;98034;;;7.86;89.41
4326;BME280;58429;49.826;10.880;2023-11-21T02:26:31;98032;;;7.86;89.36
4326;BME280;58429;49.826;10.880;2023-11-21T02:27:32;98029;;;7.9;89.36
4326;BME280;58429;49.826;10.880;2023-11-21T02:28:31;98027;;;7.85;89.65
4326;BME280;58429;49.826;10.880;2023-11-21T02:29:31;98024;;;7.86;89.54
4326;BME280;58429;49.826;10.880;2023-11-21T02:30:31;98033;;;7.86;89.5
4326;BME280;58429;49.826;10.880;2023-11-21T02:31:32;98029;;;7.86;89.48
4326;BME280;58429;49.826;10.880;2023-11-21T02:32:32;98022;;;7.87;89.43
4326;BME280;58429;49.826;10.880;2023-11-21T02:33:32;98022;;;7.87;89.44
4326;BME280;58429;49.826;10.880;2023-11-21T02:34:32;98015;;;7.87;89.47
4326;BME280;58429;49.826;10.880;2023-11-21T02:35:31;98020;;;7.88;89.44
4326;BME280;58429;49.826;10.880;2023-11-21T02:36:31;98018;;;7.87;89.46
4326;BME280;58429;49.826;10.880;2023-11-21T02:37:31;98018;;;7.88;89.48
4326;BME280;58429;49.826;10.880;2023-11-21T02:38:31;98018;;;7.87;89.5
4326;BME280;58429;49.826;10.880;2023-11-21T02:39:32;98013;;;7.85;89.52
4326;BME280;58429;49.826;10.880;2023-11-21T02:40:32;98016;;;7.84;89.52
4326;BME280;58429;49.826;10.880;2023-11-21T02:41:32;98025;;;7.86;89.62
4326;BME280;58429;49.826;10.880;2023-11-21T02:42:32;98021;;;7.85;89.57
4326;BME280;58429;49.826;10.880;2023-11-21T02:43:32;98023;;;7.86;89.59
4326;BME280;58429;49.826;10.880;2023-11-21T02:44:31;98020;;;7.85;89.56
4326;BME280;58429;49.826;10.880;2023-11-21T02:45:32;98021;;;7.87;89.55
4326;BME280;58429;49.826;10.880;2023-11-21T02:46:32;98025;;;7.86;89.59
4326;BME280;58429;49.826;10.880;2023-11-21T02:47:31;98022;;;7.87;89.59
4326;BME280;58429;49.826;10.880;2023-11-21T02:48:32;98020;;;7.87;89.57
4326;BME280;58429;49.826;10.880;2023-11-21T02:49:32;98018;;;7.87;89.57
4326;BME280;58429;49.826;10.880;2023-11-21T02:50:32;98016;;;7.86;89.55
4326;BME280;58429;49.826;10.880;2023-11-21T02:51:32;98022;;;7.87;89.54
4326;BME280;58429;49.826;10.880;2023-11-21T02:52:32;98021;;;7.88;89.59
4326;BME280;58429;49.826;10.880;2023-11-21T02:53:31;98018;;;7.89;89.6
4326;BME280;58429;49.826;10.880;2023-11-21T02:54:32;98026;;;7.84;89.62
4326;BME280;58429;49.826;10.880;2023-11-21T02:55:32;98018;;;7.85;89.71
4326;BME280;58429;49.826;10.880;2023-11-21T02:56:32;98019;;;7.85;89.64
4326;BME280;58429;49.826;10.880;2023-11-21T02:57:32;98028;;;7.86;89.65
4326;BME280;58429;49.826;10.880;2023-11-21T02:58:32;98022;;;7.87;89.63
4326;BME280;58429;49.826;10.880;2023-11-21T02:59:32;98021;;;7.87;89.66
4326;BME280;58429;49.826;10.880;2023-11-21T03:00:32;98020;;;7.86;89.7
4326;BME280;58429;49.826;10.880;2023-11-21T03:01:32;98016;;;7.86;89.72
4326;BME280;58429;49.826;10.880;2023-11-21T03:02:32;98016;;;7.86;89.72
4326;BME280;58429;49.826;10.880;2023-11-21T03:03:31;98023;;;7.86;89.69
4326;BME280;58429;49.826;10.880;2023-11-21T03:04:31;98026;;;7.86;89.67
4326;BME280;58429;49.826;10.880;2023-11-21T03:05:32;98023;;;7.88;89.66
4326;BME280;58429;49.826;10.880;2023-11-21T03:06:32;98020;;;7.89;89.68
4326;BME280;58429;49.826;10.880;2023-11-21T03:07:32;98021;;;7.88;89.67
4326;BME280;58429;49.826;10.880;2023-11-21T03:08:32;98023;;;7.87;89.66
4326;BME280;58429;49.826;10.880;2023-11-21T03:09:32;98017;;;7.9;89.7
4326;BME280;58429;49.826;10.880;2023-11-21T03:10:31;98023;;;7.89;89.68
4326;BME280;58429;49.826;10.880;2023-11-21T03:11:32;98020;;;7.9;89.69
4326;BME280;58429;49.826;10.880;2023-11-21T03:12:32;98017;;;7.88;89.66
4326;BME280;58429;49.826;10.880;2023-11-21T03:13:32;98016;;;7.87;89.63
4326;BME280;58429;49.826;10.880;2023-11-21T03:14:32;98018;;;7.89;89.62
4326;BME280;58429;49.826;10.880;2023-11-21T03:15:31;98027;;;7.9;89.59
4326;BME280;58429;49.826;10.880;2023-11-21T03:16:32;98020;;;7.92;89.58
4326;BME280;58429;49.826;10.880;2023-11-21T03:17:32;98020;;;7.93;89.58
4326;BME280;58429;49.826;10.880;2023-11-21T03:18:32;98024;;;7.9;89.55
4326;BME280;58429;49.826;10.880;2023-11-21T03:19:32;98023;;;7.96;89.54
4326;BME280;58429;49.826;10.880;2023-11-21T03:20:32;98020;;;7.93;89.52
4326;BME280;58429;49.826;10.880;2023-11-21T03:21:32;98020;;;7.97;89.52
4326;BME280;58429;49.826;10.880;2023-11-21T03:22:32;98021;;;7.99;89.49
4326;BME280;58429;49.826;10.880;2023-11-21T03:23:32;98026;;;7.93;89.47
4326;BME280;58429;49.826;10.880;2023-11-21T03:24:32;98024;;;7.96;89.48
4326;BME280;58429;49.826;10.880;2023-11-21T03:25:32;98032;;;7.97;89.47
4326;BME280;58429;49.826;10.880;2023-11-21T03:26:32;98021;;;7.97;89.49
4326;BME280;58429;49.826;10.880;2023-11-21T03:27:32;98024;;;8;89.5
4326;BME280;58429;49.826;10.880;2023-11-21T03:28:32;98025;;;8;89.48
4326;BME280;58429;49.826;10.880;2023-11-21T03:29:32;98027;;;8.03;89.45
4326;BME280;58429;49.826;10.880;2023-11-21T03:30:32;98026;;;7.99;89.43
4326;BME280;58429;49.826;10.880;2023-11-21T03:31:32;98024;;;7.98;89.41
4326;BME280;58429;49.826;10.880;2023-11-21T03:32:33;98033;;;7.98;89.42
4326;BME280;58429;49.826;10.880;2023-11-21T03:33:32;98035;;;7.99;89.38
4326;BME280;58429;49.826;10.880;2023-11-21T03:34:32;98032;;;8.01;89.37
4326;BME280;58429;49.826;10.880;2023-11-21T03:35:32;98031;;;8.02;89.4
4326;BME280;58429;49.826;10.880;2023-11-21T03:36:32;98044;;;8.02;89.37
4326;BME280;58429;49.826;10.880;2023-11-21T03:37:32;98042;;;7.99;89.4
4326;BME280;58429;49.826;10.880;2023-11-21T03:38:32;98041;;;7.99;89.39
4326;BME280;58429;49.826;10.880;2023-11-21T03:39:32;98045;;;7.98;89.39
4326;BME280;58429;49.826;10.880;2023-11-21T03:40:31;98040;;;7.99;89.38
4326;BME280;58429;49.826;10.880;2023-11-21T03:41:32;98040;;;8.02;89.38
4326;BME280;58429;49.826;10.880;2023-11-21T03:42:32;98037;;;8.01;89.38
4326;BME280;58429;49.826;10.880;2023-11-21T03:43:32;98044;;;8.01;89.38
4326;BME280;58429;49.826;10.880;2023-11-21T03:44:32;98038;;;8.03;89.39
4326;BME280;58429;49.826;10.880;2023-11-21T03:45:32;98044;;;7.98;89.38
4326;BME280;58429;49.826;10.880;2023-11-21T03:46:32;98039;;;8.02;89.4
4326;BME280;58429;49.826;10.880;2023-11-21T03:47:32;98038;;;7.99;89.37
4326;BME280;58429;49.826;10.880;2023-11-21T03:48:32;98037;;;8.01;89.38
4326;BME280;58429;49.826;10.880;2023-11-21T03:49:32;98036;;;8.05;89.37
4326;BME280;58429;49.826;10.880;2023-11-21T03:50:32;98036;;;8.01;89.36
4326;BME280;58429;49.826;10.880;2023-11-21T03:51:32;98038;;;8.05;89.37
4326;BME280;58429;49.826;10.880;2023-11-21T03:52:32;98042;;;8.03;89.39
4326;BME280;58429;49.826;10.880;2023-11-21T03:53:32;98038;;;8.05;89.39
4326;BME280;58429;49.826;10.880;2023-11-21T03:54:32;98034;;;8.01;89.47
4326;BME280;58429;49.826;10.880;2023-11-21T03:55:32;98036;;;8;89.42
4326;BME280;58429;49.826;10.880;2023-11-21T03:56:32;98034;;;8.03;89.42
4326;BME280;58429;49.826;10.880;2023-11-21T03:57:32;98032;;;8;89.39
4326;BME280;58429;49.826;10.880;2023-11-21T03:58:32;98042;;;7.99;89.42
4326;BME280;58429;49.826;10.880;2023-11-21T03:59:32;98035;;;7.97;89.42
4326;BME280;58429;49.826;10.880;2023-11-21T04:00:32;98040;;;8.01;89.45
4326;BME280;58429;49.826;10.880;2023-11-21T04:01:32;98043;;;7.97;89.46
4326;BME280;58429;49.826;10.880;2023-11-21T04:02:32;98045;;;8.01;89.48
4326;BME280;58429;49.826;10.880;2023-11-21T04:03:32;98041;;;7.98;89.47
4326;BME280;58429;49.826;10.880;2023-11-21T04:04:32;98041;;;7.96;89.44
4326;BME280;58429;49.826;10.880;2023-11-21T04:05:32;98046;;;8.02;89.45
4326;BME280;58429;49.826;10.880;2023-11-21T04:06:32;98049;;;8;89.45
4326;BME280;58429;49.826;10.880;2023-11-21T04:07:32;98051;;;7.99;89.43
4326;BME280;58429;49.826;10.880;2023-11-21T04:08:32;98054;;;8.02;89.43
4326;BME280;58429;49.826;10.880;2023-11-21T04:09:32;98050;;;8.03;89.41
4326;BME280;58429;49.826;10.880;2023-11-21T04:10:32;98055;;;8.02;89.39
4326;BME280;58429;49.826;10.880;2023-11-21T04:11:32;98044;;;8.04;89.39
4326;BME280;58429;49.826;10.880;2023-11-21T04:12:32;98048;;;8.06;89.37
4326;BME280;58429;49.826;10.880;2023-11-21T04:13:32;98053;;;8.05;89.35
4326;BME280;58429;49.826;10.880;2023-11-21T04:14:32;98053;;;8.11;89.37
4326;BME280;58429;49.826;10.880;2023-11-21T04:15:32;98046;;;8.07;89.35
4326;BME280;58429;49.826;10.880;2023-11-21T04:16:32;98052;;;8.1;89.36
4326;BME280;58429;49.826;10.880;2023-11-21T04:17:32;98052;;;8.07;89.38
4326;BME280;58429;49.826;10.880;2023-11-21T04:18:32;98056;;;8.06;89.37
4326;BME280;58429;49.826;10.880;2023-11-21T04:19:37;98052;;;8.06;89.38
4326;BME280;58429;49.826;10.880;2023-11-21T04:20:32;98059;;;8.05;89.41
4326;BME280;58429;49.826;10.880;2023-11-21T04:21:32;98059;;;8.06;89.39
4326;BME280;58429;49.826;10.880;2023-11-21T04:22:32;98059;;;8.07;89.4
4326;BME280;58429;49.826;10.880;2023-11-21T04:23:32;98054;;;8.06;89.41
4326;BME280;58429;49.826;10.880;2023-11-21T04:24:32;98055;;;8.09;89.39
4326;BME280;58429;49.826;10.880;2023-11-21T04:25:32;98056;;;8.06;89.41
4326;BME280;58429;49.826;10.880;2023-11-21T04:26:32;98053;;;8.08;89.42
4326;BME280;58429;49.826;10.880;2023-11-21T04:27:32;98059;;;8.07;89.41
4326;BME280;58429;49.826;10.880;2023-11-21T04:28:32;98057;;;8.09;89.42
4326;BME280;58429;49.826;10.880;2023-11-21T04:29:32;98059;;;8.08;89.39
4326;BME280;58429;49.826;10.880;2023-11-21T04:30:32;98066;;;8.1;89.39
4326;BME280;58429;49.826;10.880;2023-11-21T04:31:32;98065;;;8.08;89.41
4326;BME280;58429;49.826;10.880;2023-11-21T04:32:32;98073;;;8.07;89.43
4326;BME280;58429;49.826;10.880;2023-11-21T04:33:32;98066;;;8.09;89.43
4326;BME280;58429;49.826;10.880;2023-11-21T04:34:32;98066;;;8.05;89.41
4326;BME280;58429;49.826;10.880;2023-11-21T04:35:32;98066;;;8.03;89.44
4326;BME280;58429;49.826;10.880;2023-11-21T04:36:32;98062;;;8.04;89.46
4326;BME280;58429;49.826;10.880;2023-11-21T04:37:32;98068;;;8.03;89.5
4326;BME280;58429;49.826;10.880;2023-11-21T04:38:32;98069;;;8.02;89.48
4326;BME280;58429;49.826;10.880;2023-11-21T04:39:32;98065;;;8.02;89.5
4326;BME280;58429;49.826;10.880;2023-11-21T04:40:32;98066;;;8.02;89.5
4326;BME280;58429;49.826;10.880;2023-11-21T04:41:32;98068;;;8.04;89.53
4326;BME280;58429;49.826;10.880;2023-11-21T04:42:33;98063;;;7.98;89.5
4326;BME280;58429;49.826;10.880;2023-11-21T04:43:32;98064;;;8.02;89.51
4326;BME280;58429;49.826;10.880;2023-11-21T04:44:32;98061;;;8.04;89.49
4326;BME280;58429;49.826;10.880;2023-11-21T04:45:32;98073;;;8.01;89.46
4326;BME280;58429;49.826;10.880;2023-11-21T04:46:32;98068;;;8.04;89.48
4326;BME280;58429;49.826;10.880;2023-11-21T04:47:32;98069;;;8.05;89.47
4326;BME280;58429;49.826;10.880;2023-11-21T04:48:32;98067;;;8.05;89.45
4326;BME280;58429;49.826;10.880;2023-11-21T04:49:32;98070;;;8.05;89.46
4326;BME280;58429;49.826;10.880;2023-11-21T04:50:32;98069;;;8.08;89.48
4326;BME280;58429;49.826;10.880;2023-11-21T04:51:32;98068;;;8.03;89.43
4326;BME280;58429;49.826;10.880;2023-11-21T04:52:32;98063;;;8.06;89.43
4326;BME280;58429;49.826;10.880;2023-11-21T04:53:32;98070;;;8.09;89.43
4326;BME280;58429;49.826;10.880;2023-11-21T04:54:32;98068;;;8.08;89.41
4326;BME280;58429;49.826;10.880;2023-11-21T04:55:32;98070;;;8.07;89.42
4326;BME280;58429;49.826;10.880;2023-11-21T04:56:32;98066;;;8.05;89.42
4326;BME280;58429;49.826;10.880;2023-11-21T04:57:32;98063;;;8.07;89.41
4326;BME280;58429;49.826;10.880;2023-11-21T04:58:32;98065;;;8.09;89.42
4326;BME280;58429;49.826;10.880;2023-11-21T04:59:32;98069;;;8.04;89.38
4326;BME280;58429;49.826;10.880;2023-11-21T05:00:32;98074;;;8.03;89.41
4326;BME280;58429;49.826;10.880;2023-11-21T05:01:32;98067;;;8.04;89.44
4326;BME280;58429;49.826;10.880;2023-11-21T05:02:32;98076;;;8.01;89.42
4326;BME280;58429;49.826;10.880;2023-11-21T05:03:32;98068;;;8.02;89.42
4326;BME280;58429;49.826;10.880;2023-11-21T05:04:32;98078;;;8;89.39
4326;BME280;58429;49.826;10.880;2023-11-21T05:05:32;98071;;;8.02;89.4
4326;BME280;58429;49.826;10.880;2023-11-21T05:06:32;98069;;;8;89.39
4326;BME280;58429;49.826;10.880;2023-11-21T05:07:32;98065;;;8.01;89.38
4326;BME280;58429;49.826;10.880;2023-11-21T05:08:32;98071;;;8;89.38
4326;BME280;58429;49.826;10.880;2023-11-21T05:09:32;98072;;;8.01;89.35
4326;BME280;58429;49.826;10.880;2023-11-21T05:10:32;98070;;;8.04;89.36
4326;BME280;58429;49.826;10.880;2023-11-21T05:11:32;98078;;;8.04;89.31
4326;BME280;58429;49.826;10.880;2023-11-21T05:12:32;98074;;;8.01;89.29
4326;BME280;58429;49.826;10.880;2023-11-21T05:13:33;98071;;;8.03;89.31
4326;BME280;58429;49.826;10.880;2023-11-21T05:14:32;98072;;;7.99;89.28
4326;BME280;58429;49.826;10.880;2023-11-21T05:15:32;98078;;;8.03;89.28
4326;BME280;58429;49.826;10.880;2023-11-21T05:16:32;98080;;;8;89.27
4326;BME280;58429;49.826;10.880;2023-11-21T05:17:32;98079;;;8.02;89.28
4326;BME280;58429;49.826;10.880;2023-11-21T05:18:32;98082;;;8.02;89.26
4326;BME280;58429;49.826;10.880;2023-11-21T05:19:32;98076;;;7.98;89.24
4326;BME280;58429;49.826;10.880;2023-11-21T05:20:32;98074;;;7.97;89.24
4326;BME280;58429;49.826;10.880;2023-11-21T05:21:32;98081;;;8.02;89.27
4326;BME280;58429;49.826;10.880;2023-11-21T05:22:32;98080;;;8;89.28
4326;BME280;58429;49.826;10.880;2023-11-21T05:23:32;98088;;;8;89.3
4326;BME280;58429;49.826;10.880;2023-11-21T05:24:32;98086;;;8.02;89.28
4326;BME280;58429;49.826;10.880;2023-11-21T05:25:32;98079;;;7.99;89.29
4326;BME280;58429;49.826;10.880;2023-11-21T05:26:32;98082;;;7.98;89.3
4326;BME280;58429;49.826;10.880;2023-11-21T05:27:32;98088;;;8.02;89.32
4326;BME280;58429;49.826;10.880;2023-11-21T05:28:32;98087;;;8;89.35
4326;BME280;58429;49.826;10.880;2023-11-21T05:29:32;98088;;;7.98;89.32
4326;BME280;58429;49.826;10.880;2023-11-21T05:30:32;98088;;;8.02;89.34
4326;BME280;58429;49.826;10.880;2023-11-21T05:31:32;98088;;;8.01;89.34
4326;BME280;58429;49.826;10.880;2023-11-21T05:32:32;98086;;;8.01;89.33
4326;BME280;58429;49.826;10.880;2023-11-21T05:33:32;98093;;;7.98;89.31
4326;BME280;58429;49.826;10.880;2023-11-21T05:34:32;98093;;;7.99;89.34
4326;BME280;58429;49.826;10.880;2023-11-21T05:35:32;98095;;;8;89.32
4326;BME280;58429;49.826;10.880;2023-11-21T05:36:32;98097;;;8;89.34